Tularosa, New Mexico
Current Conditions -  °F | °C
As of 12:58 AM on Sunday 23 Nov 2014 (Local Time) from KHMN Reporting Station
Clear Clear  
Wind Chill: 43°   Ceiling: Unl
Heat Index: 46°   Visibility: 10mi
Dew Point: 18°   Wind: 6mph
Humidity: 33%   Direction: 150°SSE
Pressure: 29.82"   Gusts: NA
Location:  33.07°N, 106.02°W
Report Text: KHMN 230758Z AUTO 15005KT 10SM CLR 08/M08 A2982 RMK AO2 SLP060 T00771078 $
Loading
Personal Weather Stations






























Interactive Weather Map New forecast layout! Learn more

10-Day Weather Forecast

Advertisements
Track Severe Weather on mobile